createdAt,value
2018-12-14T00:01:59.814Z,27.52
2018-12-14T00:04:28.598Z,27.27
2018-12-14T00:06:57.016Z,27.34
2018-12-14T00:09:25.579Z,26.81
2018-12-14T00:11:54.155Z,27.24
2018-12-14T00:14:22.614Z,26.63
2018-12-14T00:16:51.191Z,27.41
2018-12-14T00:19:19.862Z,26.49
2018-12-14T00:21:48.311Z,27.20
2018-12-14T00:24:16.982Z,27.20
2018-12-14T00:26:45.504Z,27.15
2018-12-14T00:29:14.069Z,27.13
2018-12-14T00:31:42.519Z,26.98
2018-12-14T00:34:11.009Z,27.04
2018-12-14T00:36:39.450Z,26.98
2018-12-14T00:39:08.055Z,27.07
2018-12-14T00:41:36.544Z,26.93
2018-12-14T00:44:04.998Z,26.39
2018-12-14T00:46:35.508Z,26.88
2018-12-14T00:49:04.086Z,26.65
2018-12-14T00:51:32.526Z,26.77
2018-12-14T00:54:01.105Z,26.93
2018-12-14T00:56:29.662Z,26.42
2018-12-14T00:58:58.083Z,26.45
2018-12-14T01:01:26.579Z,26.82
2018-12-14T01:03:55.158Z,26.27
2018-12-14T01:06:23.762Z,26.97
2018-12-14T01:08:52.208Z,26.67
2018-12-14T01:11:20.814Z,26.80
2018-12-14T01:13:49.262Z,26.24
2018-12-14T01:16:18.586Z,26.74
2018-12-14T01:18:47.206Z,26.84
2018-12-14T01:21:15.627Z,26.63
2018-12-14T01:23:44.090Z,26.63
2018-12-14T01:26:12.600Z,26.25
2018-12-14T01:28:41.027Z,26.71
2018-12-14T01:31:09.582Z,26.16
2018-12-14T01:33:38.075Z,26.73
2018-12-14T01:36:06.738Z,26.85
2018-12-14T01:38:35.294Z,26.73
2018-12-14T01:41:03.922Z,26.35
2018-12-14T01:43:32.384Z,26.26
2018-12-14T01:46:00.819Z,26.35
2018-12-14T01:48:29.335Z,26.65
2018-12-14T01:50:57.782Z,26.05
2018-12-14T01:53:26.294Z,26.64
2018-12-14T01:55:55.045Z,26.71
2018-12-14T01:58:23.494Z,26.58
2018-12-14T02:00:52.066Z,26.10
2018-12-14T02:03:20.647Z,26.55
2018-12-14T02:05:49.115Z,26.12
2018-12-14T02:08:17.719Z,26.59
2018-12-14T02:10:46.398Z,26.08
2018-12-14T02:13:14.845Z,26.42
2018-12-14T02:15:43.306Z,26.32
2018-12-14T02:18:11.910Z,26.04
2018-12-14T02:20:40.366Z,26.02
2018-12-14T02:23:08.943Z,26.96
2018-12-14T02:25:37.570Z,26.00
2018-12-14T02:28:06.135Z,26.66
2018-12-14T02:30:50.288Z,25.86
2018-12-14T02:33:18.750Z,26.08
2018-12-14T02:35:47.319Z,26.01
2018-12-14T02:38:15.814Z,25.87
2018-12-14T02:40:44.328Z,26.44
2018-12-14T02:43:12.911Z,25.97
2018-12-14T02:45:41.516Z,25.88
2018-12-14T02:48:09.960Z,26.03
2018-12-14T02:50:38.441Z,25.83
2018-12-14T02:53:07.036Z,26.00
2018-12-14T02:55:35.515Z,26.55
2018-12-14T02:58:03.970Z,25.84
2018-12-14T03:00:32.560Z,26.21
2018-12-14T03:03:00.998Z,25.92
2018-12-14T03:05:29.444Z,25.94
2018-12-14T03:07:58.020Z,25.88
2018-12-14T03:10:26.732Z,26.08
2018-12-14T03:12:55.165Z,26.62
2018-12-14T03:15:23.758Z,26.46
2018-12-14T03:17:52.324Z,26.39
2018-12-14T03:20:20.750Z,26.52
2018-12-14T03:22:49.364Z,25.85
2018-12-14T03:25:17.947Z,25.75
2018-12-14T03:27:46.370Z,25.72
2018-12-14T03:30:14.854Z,26.28
2018-12-14T03:32:43.321Z,25.80
2018-12-14T03:35:11.858Z,26.37
2018-12-14T03:37:40.382Z,26.01
2018-12-14T03:40:08.950Z,25.92
2018-12-14T03:42:37.382Z,26.36
2018-12-14T03:45:05.894Z,26.45
2018-12-14T03:47:34.346Z,26.19
2018-12-14T03:50:02.790Z,26.06
2018-12-14T03:52:31.410Z,26.31
2018-12-14T03:54:59.850Z,25.81
2018-12-14T03:57:28.299Z,26.14
2018-12-14T03:59:56.806Z,26.54
2018-12-14T04:02:25.227Z,25.82
2018-12-14T04:04:53.654Z,25.70
2018-12-14T04:07:22.242Z,26.42
2018-12-14T04:09:50.695Z,26.00
2018-12-14T04:12:19.278Z,25.93
2018-12-14T04:14:47.775Z,26.40
2018-12-14T04:17:16.213Z,26.35
2018-12-14T04:19:44.793Z,26.40
2018-12-14T04:22:13.407Z,26.05
2018-12-14T04:24:41.847Z,25.72
2018-12-14T04:27:10.302Z,25.77
2018-12-14T04:29:39.023Z,26.33
2018-12-14T04:32:07.451Z,26.30
2018-12-14T04:34:35.892Z,25.63
2018-12-14T04:37:04.672Z,26.31
2018-12-14T04:39:33.103Z,26.25
2018-12-14T04:42:01.548Z,26.28
2018-12-14T04:44:30.049Z,26.32
2018-12-14T04:46:58.739Z,25.81
2018-12-14T04:49:27.534Z,26.36
2018-12-14T04:51:56.034Z,26.14
2018-12-14T04:54:24.475Z,25.82
2018-12-14T04:56:52.902Z,25.64
2018-12-14T04:59:21.627Z,26.15
2018-12-14T05:01:50.059Z,25.96
2018-12-14T05:04:18.488Z,26.77
2018-12-14T05:06:47.019Z,27.04
2018-12-14T05:09:15.470Z,27.06
2018-12-14T05:11:43.894Z,27.18
2018-12-14T05:14:12.496Z,27.43
2018-12-14T05:16:40.978Z,27.47
2018-12-14T05:19:09.414Z,28.29
2018-12-14T05:21:39.130Z,27.47
2018-12-14T05:24:07.704Z,27.44
2018-12-14T05:26:36.163Z,27.78
2018-12-14T05:29:04.778Z,27.93
2018-12-14T05:31:33.525Z,28.22
2018-12-14T05:34:02.081Z,28.25
2018-12-14T05:36:30.655Z,28.45
2018-12-14T05:38:59.098Z,28.39
2018-12-14T05:41:27.658Z,28.36
2018-12-14T05:43:56.259Z,27.67
2018-12-14T05:46:24.703Z,27.88
2018-12-14T05:48:53.134Z,28.01
2018-12-14T05:51:21.797Z,28.05
2018-12-14T05:53:50.238Z,27.97
2018-12-14T05:56:18.790Z,27.86
2018-12-14T05:58:47.309Z,28.11
2018-12-14T06:01:15.890Z,28.38
2018-12-14T06:03:44.342Z,28.45
2018-12-14T06:06:13.094Z,27.85
2018-12-14T06:08:41.631Z,27.97
2018-12-14T06:11:10.338Z,27.67
2018-12-14T06:13:38.818Z,27.83
2018-12-14T06:16:07.394Z,27.36
2018-12-14T06:18:35.878Z,27.26
2018-12-14T06:21:04.786Z,27.82
2018-12-14T06:23:33.251Z,27.81
2018-12-14T06:26:01.915Z,27.46
2018-12-14T06:28:30.541Z,27.17
2018-12-14T06:30:59.186Z,27.11
2018-12-14T06:33:27.658Z,30.17
2018-12-14T06:35:56.194Z,47.31
2018-12-14T06:38:25.430Z,46.91
2018-12-14T06:40:54.346Z,40.94
2018-12-14T06:43:23.065Z,38.92
2018-12-14T06:45:51.506Z,36.33
2018-12-14T06:48:19.946Z,35.63
2018-12-14T06:50:54.266Z,36.82
2018-12-14T06:53:22.843Z,37.15
2018-12-14T06:55:51.294Z,35.96
2018-12-14T06:58:19.882Z,34.99
2018-12-14T07:00:48.643Z,36.98
2018-12-14T07:03:17.215Z,35.69
2018-12-14T07:05:45.690Z,34.44
2018-12-14T07:08:14.135Z,33.94
2018-12-14T07:10:48.002Z,32.36
2018-12-14T07:13:21.895Z,34.35
2018-12-14T07:15:47.087Z,33.14
2018-12-14T07:18:15.802Z,33.90
2018-12-14T07:20:44.584Z,32.61
2018-12-14T07:23:13.028Z,33.66
2018-12-14T07:25:41.618Z,31.31
2018-12-14T07:28:10.358Z,31.01
2018-12-14T07:30:39.016Z,31.21
2018-12-14T07:33:07.522Z,30.62
2018-12-14T07:35:41.705Z,31.14
2018-12-14T07:38:06.428Z,31.63
2018-12-14T07:40:35.123Z,30.83
2018-12-14T07:43:03.654Z,31.32
2018-12-14T07:45:32.098Z,31.12
2018-12-14T07:48:00.674Z,30.80
2018-12-14T07:50:29.431Z,31.34
2018-12-14T07:52:58.813Z,30.40
2018-12-14T07:55:27.542Z,30.75
2018-12-14T07:57:55.999Z,30.55
2018-12-14T08:00:24.642Z,31.04
2018-12-14T08:02:53.331Z,30.25
2018-12-14T08:05:21.783Z,29.99
2018-12-14T08:07:50.242Z,30.32
2018-12-14T08:10:19.298Z,30.45
2018-12-14T08:12:47.870Z,29.81
2018-12-14T08:15:16.659Z,29.64
2018-12-14T08:17:45.394Z,29.77
2018-12-14T08:20:17.125Z,29.62
2018-12-14T08:22:44.574Z,29.69
2018-12-14T08:25:13.038Z,29.58
2018-12-14T08:27:41.494Z,29.08
2018-12-14T08:30:15.206Z,29.62
2018-12-14T08:32:43.630Z,29.81
2018-12-14T08:35:12.193Z,29.10
2018-12-14T08:37:40.898Z,29.10
2018-12-14T08:40:09.610Z,29.27
2018-12-14T08:42:38.052Z,29.47
2018-12-14T08:45:06.907Z,29.42
2018-12-14T08:47:35.400Z,29.30
2018-12-14T08:50:04.129Z,28.77
2018-12-14T08:52:32.647Z,28.74
2018-12-14T08:55:01.093Z,28.57
2018-12-14T08:57:29.553Z,28.69
2018-12-14T08:59:58.224Z,29.03
2018-12-14T09:02:26.758Z,28.58
2018-12-14T09:04:55.206Z,28.75
2018-12-14T09:07:24.721Z,28.65
2018-12-14T09:09:53.309Z,28.42
2018-12-14T09:12:21.750Z,28.40
2018-12-14T09:14:50.255Z,28.70
2018-12-14T09:17:18.698Z,27.78
2018-12-14T09:19:48.106Z,28.16
2018-12-14T09:22:16.818Z,27.65
2018-12-14T09:24:45.254Z,28.36
2018-12-14T09:27:13.710Z,27.87
2018-12-14T09:29:42.475Z,28.19
2018-12-14T09:32:10.935Z,28.14
2018-12-14T09:34:39.832Z,27.62
2018-12-14T09:37:08.416Z,28.23
2018-12-14T09:39:37.138Z,28.24
2018-12-14T09:42:05.590Z,28.12
2018-12-14T09:44:34.178Z,27.55
2018-12-14T09:47:02.718Z,27.53
2018-12-14T09:49:31.266Z,27.35
2018-12-14T09:51:59.886Z,27.78
2018-12-14T09:54:28.334Z,27.36
2018-12-14T09:56:56.912Z,27.15
2018-12-14T09:59:25.728Z,27.11
2018-12-14T10:01:54.471Z,27.26
2018-12-14T10:04:22.922Z,27.75
2018-12-14T10:06:51.490Z,27.09
2018-12-14T10:09:19.953Z,27.13
2018-12-14T10:11:54.851Z,26.89
2018-12-14T10:14:18.891Z,27.44
2018-12-14T10:16:47.319Z,27.64
2018-12-14T10:19:15.806Z,27.59
2018-12-14T10:21:44.402Z,26.91
2018-12-14T10:24:13.023Z,27.06
2018-12-14T10:26:41.462Z,26.97
2018-12-14T10:29:10.002Z,27.06
2018-12-14T10:31:38.723Z,26.93
2018-12-14T10:34:07.167Z,26.96
2018-12-14T10:36:35.646Z,26.89
2018-12-14T10:39:04.931Z,26.64
2018-12-14T10:41:33.706Z,27.18
2018-12-14T10:44:07.351Z,26.59
2018-12-14T10:46:32.706Z,26.56
2018-12-14T10:49:01.162Z,26.27
2018-12-14T10:51:29.932Z,26.90
2018-12-14T10:53:58.394Z,26.40
2018-12-14T10:56:27.001Z,26.99
2018-12-14T10:58:55.648Z,27.14
2018-12-14T11:01:29.731Z,26.80
2018-12-14T11:03:58.326Z,26.15
2018-12-14T11:06:26.811Z,26.92
2018-12-14T11:08:55.269Z,26.47
2018-12-14T11:11:24.103Z,26.89
2018-12-14T11:13:52.539Z,26.17
2018-12-14T11:16:21.099Z,26.71
2018-12-14T11:18:49.584Z,26.55
2018-12-14T11:21:18.182Z,26.06
2018-12-14T11:23:46.629Z,26.20
2018-12-14T11:26:15.288Z,26.08
2018-12-14T11:28:43.777Z,26.00
2018-12-14T11:31:12.603Z,26.56
2018-12-14T11:33:41.106Z,26.66
2018-12-14T11:36:09.531Z,26.18
2018-12-14T11:38:37.974Z,25.96
2018-12-14T11:41:06.862Z,25.93
2018-12-14T11:43:35.450Z,26.03
2018-12-14T11:46:04.015Z,26.63
2018-12-14T11:48:32.515Z,26.67
2018-12-14T11:51:01.178Z,26.54
2018-12-14T11:53:29.614Z,26.59
2018-12-14T11:55:58.090Z,26.48
2018-12-14T11:58:26.570Z,25.99
2018-12-14T12:00:55.419Z,26.51
2018-12-14T12:03:23.906Z,26.43
2018-12-14T12:05:52.462Z,26.43
2018-12-14T12:08:21.145Z,26.15
2018-12-14T12:10:54.907Z,26.33
2018-12-14T12:13:23.350Z,26.47
2018-12-14T12:15:51.802Z,25.89
2018-12-14T12:18:20.319Z,25.99
2018-12-14T12:20:49.094Z,26.33
2018-12-14T12:23:17.542Z,25.79
2018-12-14T12:25:46.157Z,26.44
2018-12-14T12:28:14.738Z,26.23
2018-12-14T12:30:43.247Z,25.78
2018-12-14T12:33:11.767Z,26.20
2018-12-14T12:35:40.215Z,26.10
2018-12-14T12:38:08.962Z,25.59
2018-12-14T12:40:37.688Z,26.42
2018-12-14T12:43:06.136Z,26.22
2018-12-14T12:45:34.856Z,25.75
2018-12-14T12:48:03.352Z,25.75
2018-12-14T12:50:31.792Z,26.23
2018-12-14T12:53:00.234Z,25.69
2018-12-14T12:55:28.807Z,25.75
2018-12-14T12:57:57.242Z,25.70
2018-12-14T13:00:25.903Z,25.79
2018-12-14T13:02:54.486Z,25.96
2018-12-14T13:05:22.943Z,26.00
2018-12-14T13:07:51.386Z,26.16
2018-12-14T13:10:20.083Z,25.69
2018-12-14T13:12:48.526Z,25.68
2018-12-14T13:15:16.984Z,25.89
2018-12-14T13:17:45.572Z,26.10
2018-12-14T13:20:14.315Z,25.67
2018-12-14T13:22:42.942Z,25.58
2018-12-14T13:25:11.484Z,25.86
2018-12-14T13:27:39.927Z,26.12
2018-12-14T13:30:08.593Z,25.78
2018-12-14T13:32:37.219Z,25.39
2018-12-14T13:35:06.422Z,25.80
2018-12-14T13:37:35.039Z,25.98
2018-12-14T13:40:03.795Z,26.02
2018-12-14T13:42:32.371Z,26.29
2018-12-14T13:45:01.089Z,25.90
2018-12-14T13:47:29.700Z,25.81
2018-12-14T13:49:58.137Z,25.46
2018-12-14T13:52:26.732Z,25.97
2018-12-14T13:54:55.474Z,25.44
2018-12-14T13:57:23.914Z,25.77
2018-12-14T13:59:52.547Z,25.29
2018-12-14T14:02:21.026Z,25.43
2018-12-14T14:04:49.480Z,25.44
2018-12-14T14:07:17.986Z,25.80
2018-12-14T14:09:46.477Z,25.24
2018-12-14T14:12:14.906Z,25.84
2018-12-14T14:14:43.494Z,25.72
2018-12-14T14:17:12.126Z,25.69
2018-12-14T14:19:40.739Z,25.10
2018-12-14T14:22:09.308Z,25.58
2018-12-14T14:24:37.878Z,25.19
2018-12-14T14:27:06.347Z,25.13
2018-12-14T14:29:34.779Z,25.76
2018-12-14T14:32:03.426Z,25.15
2018-12-14T14:34:31.860Z,25.63
2018-12-14T14:37:00.303Z,25.31
2018-12-14T14:39:28.878Z,25.08
2018-12-14T14:41:57.318Z,25.85
2018-12-14T14:44:25.767Z,25.14
2018-12-14T14:46:54.478Z,25.33
2018-12-14T14:49:22.930Z,25.68
2018-12-14T14:51:51.715Z,25.71
2018-12-14T14:54:20.632Z,25.77
2018-12-14T14:56:49.074Z,25.86
2018-12-14T14:59:18.155Z,25.46
2018-12-14T15:01:46.903Z,25.04
2018-12-14T15:04:15.907Z,25.72
2018-12-14T15:06:44.430Z,25.78
2018-12-14T15:09:12.982Z,25.06
2018-12-14T15:11:41.438Z,25.14
2018-12-14T15:14:09.886Z,25.02
2018-12-14T15:16:38.397Z,25.90
2018-12-14T15:19:06.835Z,25.64
2018-12-14T15:21:35.279Z,25.80
2018-12-14T15:24:03.857Z,24.95
2018-12-14T15:26:32.320Z,25.02
2018-12-14T15:29:00.758Z,25.65
2018-12-14T15:31:29.380Z,25.00
2018-12-14T15:33:58.099Z,25.61
2018-12-14T15:36:26.598Z,25.34
2018-12-14T15:38:55.194Z,24.87
2018-12-14T15:41:23.659Z,25.02
2018-12-14T15:43:52.235Z,24.99
2018-12-14T15:46:20.947Z,24.98
2018-12-14T15:48:49.497Z,24.93
2018-12-14T15:51:18.482Z,25.25
2018-12-14T15:53:46.994Z,25.51
2018-12-14T15:56:15.454Z,25.53
2018-12-14T15:58:43.894Z,25.01
2018-12-14T16:01:12.387Z,24.98
2018-12-14T16:03:40.830Z,24.99
2018-12-14T16:06:09.270Z,25.47
2018-12-14T16:08:37.771Z,25.03
2018-12-14T16:11:06.418Z,24.97
2018-12-14T16:13:34.900Z,25.71
2018-12-14T16:16:03.448Z,25.54
2018-12-14T16:18:31.894Z,25.12
2018-12-14T16:21:00.520Z,25.76
2018-12-14T16:23:29.022Z,25.21
2018-12-14T16:25:57.462Z,25.57
2018-12-14T16:28:25.907Z,26.26
2018-12-14T16:30:54.466Z,25.78
2018-12-14T16:33:22.927Z,26.10
2018-12-14T16:35:51.525Z,26.04
2018-12-14T16:38:20.379Z,25.57
2018-12-14T16:40:49.105Z,25.94
2018-12-14T16:43:17.562Z,26.51
2018-12-14T16:45:46.148Z,27.10
2018-12-14T16:48:14.590Z,27.30
2018-12-14T16:50:43.272Z,27.39
2018-12-14T16:53:11.746Z,27.63
2018-12-14T16:55:40.186Z,27.79
2018-12-14T16:58:08.682Z,27.15
2018-12-14T17:00:37.503Z,27.21
2018-12-14T17:03:05.942Z,26.88
2018-12-14T17:05:34.393Z,26.98
2018-12-14T17:08:02.915Z,27.44
2018-12-14T17:10:31.511Z,27.15
2018-12-14T17:12:59.962Z,26.91
2018-12-14T17:15:33.223Z,27.02
2018-12-14T17:17:58.902Z,26.75
2018-12-14T17:20:27.491Z,26.35
2018-12-14T17:22:56.045Z,26.17
2018-12-14T17:25:24.530Z,27.07
2018-12-14T17:27:52.978Z,26.62
2018-12-14T17:30:21.650Z,26.98
2018-12-14T17:32:50.106Z,28.18
2018-12-14T17:35:18.574Z,27.23
2018-12-14T17:37:47.284Z,27.10
2018-12-14T17:40:16.034Z,27.68
2018-12-14T17:42:44.494Z,27.63
2018-12-14T17:45:13.206Z,28.55
2018-12-14T17:47:41.655Z,27.77
2018-12-14T17:50:10.148Z,28.15
2018-12-14T17:52:39.122Z,27.78
2018-12-14T17:55:07.838Z,27.77
2018-12-14T17:57:36.279Z,28.09
2018-12-14T18:00:05.874Z,28.27
2018-12-14T18:02:34.329Z,27.50
2018-12-14T18:05:02.779Z,28.76
2018-12-14T18:07:31.285Z,27.42
2018-12-14T18:09:59.996Z,27.01
2018-12-14T18:12:28.458Z,27.73
2018-12-14T18:14:57.057Z,26.99
2018-12-14T18:17:25.559Z,27.37
2018-12-14T18:19:54.108Z,27.85
2018-12-14T18:22:23.039Z,27.95
2018-12-14T18:24:51.578Z,26.79
2018-12-14T18:27:20.582Z,26.88
2018-12-14T18:29:49.190Z,26.81
2018-12-14T18:32:17.654Z,27.50
2018-12-14T18:34:46.105Z,26.72
2018-12-14T18:37:14.772Z,26.62
2018-12-14T18:39:43.683Z,26.96
2018-12-14T18:42:12.138Z,26.78
2018-12-14T18:44:40.634Z,27.18
2018-12-14T18:47:09.638Z,26.68
2018-12-14T18:49:38.331Z,26.55
2018-12-14T18:52:07.335Z,27.10
2018-12-14T18:54:36.843Z,27.11
2018-12-14T18:57:05.458Z,26.94
2018-12-14T18:59:35.130Z,27.11
2018-12-14T19:02:03.582Z,26.53
2018-12-14T19:04:32.039Z,26.78
2018-12-14T19:07:00.726Z,26.12
2018-12-14T19:09:29.415Z,26.24
2018-12-14T19:11:58.827Z,26.58
2018-12-14T19:14:27.442Z,26.22
2018-12-14T19:16:56.878Z,26.73
2018-12-14T19:19:25.374Z,26.78
2018-12-14T19:21:54.038Z,26.76
2018-12-14T19:24:22.622Z,26.61
2018-12-14T19:26:51.058Z,26.52
2018-12-14T19:29:19.667Z,26.59
2018-12-14T19:31:48.678Z,25.96
2018-12-14T19:34:17.246Z,26.44
2018-12-14T19:36:45.850Z,25.84
2018-12-14T19:39:15.054Z,26.18
2018-12-14T19:41:43.789Z,26.43
2018-12-14T19:44:12.281Z,26.22
2018-12-14T19:46:40.734Z,26.59
2018-12-14T19:49:09.187Z,26.33
2018-12-14T19:51:38.045Z,26.32
2018-12-14T19:54:07.828Z,26.04
2018-12-14T19:56:36.880Z,25.65
2018-12-14T19:59:06.434Z,26.10
2018-12-14T20:01:34.877Z,26.18
2018-12-14T20:04:03.542Z,26.08
2018-12-14T20:06:32.154Z,26.18
2018-12-14T20:09:00.587Z,26.22
2018-12-14T20:11:30.593Z,25.73
2018-12-14T20:13:59.618Z,25.58
2018-12-14T20:16:28.798Z,25.52
2018-12-14T20:18:57.275Z,25.48
2018-12-14T20:21:25.959Z,25.53
2018-12-14T20:23:54.419Z,25.60
2018-12-14T20:26:22.859Z,25.38
2018-12-14T20:28:51.679Z,25.92
2018-12-14T20:31:20.155Z,26.06
2018-12-14T20:33:48.646Z,25.75
2018-12-14T20:36:17.159Z,25.64
2018-12-14T20:38:45.745Z,25.92
2018-12-14T20:41:14.295Z,25.24
2018-12-14T20:43:43.071Z,25.62
2018-12-14T20:46:11.542Z,25.74
2018-12-14T20:48:39.956Z,25.70
2018-12-14T20:51:08.467Z,25.22
2018-12-14T20:53:36.906Z,25.81
2018-12-14T20:56:05.354Z,25.59
2018-12-14T20:58:33.850Z,25.85
2018-12-14T21:01:02.303Z,25.86
2018-12-14T21:03:30.958Z,25.87
2018-12-14T21:05:59.559Z,25.68
2018-12-14T21:08:28.323Z,25.06
2018-12-14T21:10:56.751Z,25.04
2018-12-14T21:13:25.360Z,25.12
2018-12-14T21:15:53.806Z,25.02
2018-12-14T21:18:22.382Z,25.40
2018-12-14T21:20:51.166Z,25.06
2018-12-14T21:23:19.750Z,25.00
2018-12-14T21:25:48.318Z,24.93
2018-12-14T21:28:16.964Z,25.59
2018-12-14T21:30:45.649Z,25.11
2018-12-14T21:33:14.202Z,24.92
2018-12-14T21:35:42.758Z,25.57
2018-12-14T21:38:11.215Z,25.60
2018-12-14T21:40:39.762Z,25.07
2018-12-14T21:43:08.255Z,24.96
2018-12-14T21:45:36.842Z,24.93
2018-12-14T21:48:05.340Z,25.64
2018-12-14T21:50:34.170Z,25.43
2018-12-14T21:53:02.610Z,24.87
2018-12-14T21:55:31.119Z,25.34
2018-12-14T21:58:00.214Z,25.50
2018-12-14T22:00:28.980Z,25.60
2018-12-14T22:02:57.487Z,25.33
2018-12-14T22:05:26.271Z,25.58
2018-12-14T22:07:54.735Z,25.33
2018-12-14T22:10:23.401Z,25.54
2018-12-14T22:12:52.134Z,25.35
2018-12-14T22:15:20.722Z,25.83
2018-12-14T22:17:49.175Z,25.14
2018-12-14T22:20:17.959Z,25.73
2018-12-14T22:22:46.420Z,25.54
2018-12-14T22:25:15.030Z,25.40
2018-12-14T22:27:43.622Z,25.99
2018-12-14T22:30:12.404Z,25.99
2018-12-14T22:32:40.990Z,25.69
2018-12-14T22:35:09.570Z,25.26
2018-12-14T22:37:38.009Z,25.53
2018-12-14T22:40:11.755Z,25.93
2018-12-14T22:42:40.330Z,26.09
2018-12-14T22:45:08.759Z,26.17
2018-12-14T22:47:37.526Z,25.89
2018-12-14T22:52:45.634Z,25.66
2018-12-14T22:55:14.366Z,26.21
2018-12-14T22:57:43.017Z,25.48
2018-12-14T23:00:15.957Z,25.88
2018-12-14T23:02:44.402Z,25.25
2018-12-14T23:05:12.974Z,25.84
2018-12-14T23:07:41.619Z,25.29
2018-12-14T23:10:10.260Z,25.73
2018-12-14T23:12:38.846Z,25.05
2018-12-14T23:15:07.707Z,25.73
2018-12-14T23:17:36.144Z,25.06
2018-12-14T23:20:04.615Z,25.71
2018-12-14T23:22:33.202Z,25.59
2018-12-14T23:25:01.763Z,25.17
2018-12-14T23:27:30.535Z,24.99
2018-12-14T23:29:59.114Z,25.68
2018-12-14T23:32:27.808Z,25.72
2018-12-14T23:34:56.264Z,25.20
2018-12-14T23:37:24.920Z,25.54
2018-12-14T23:39:53.466Z,25.56
2018-12-14T23:42:22.050Z,25.02
2018-12-14T23:44:50.520Z,24.84
2018-12-14T23:47:18.947Z,24.84
2018-12-14T23:49:47.508Z,24.86
2018-12-14T23:52:16.138Z,25.17
2018-12-14T23:54:44.586Z,25.13
2018-12-14T23:57:13.151Z,25.23
2018-12-14T23:59:41.893Z,24.79
